»·PEaware :: N7027G KSBA-KBUR

N7027G :: KSBA-KBUR

FLIGHT INFORMATION

Flight Status: Arrived
Operator: Privately registered:
United States
More flights under this callsign
Pilot: Curtis W. (20235)
Aircraft: CESSNA 172 SKYHAWK
(C172)
More flights by this aircraft type
Origin: KSBA Santa Barbara Mun
United States
Destination: KBUR Bob Hope-Burbank
United States
More flights between these airports :: More routes between these airports
Route: +
File this flight plan on PilotEdge
Remarks:
Altitude:
(Current/Filed)
7,500ft
Speed:
(Current/Filed)
0kts
Departed: 03-Sep-18 03:24 PM
Arrived: 03-Sep-18 04:07 PM
Distance/Time
Traveled:
0nm/0:43
Distance/Time
To Go:
Arrived

Flight Plot

Page will automatically refresh every two minutes.


Map Options




Map Legend


Flown Route
Filed Route
Departure Airport
Arrival Airport
Navaid (VOR, NDB)
Fix

Horizontal Profiles

Position Reports

Time Latitude Longitude Heading Altitude Ground
Speed
03-Sep-18 14:29 34.422664 -119.835593 340 17ft 0kts
03-Sep-18 14:30 34.422664 -119.835593 340 17ft 0kts
03-Sep-18 14:31 34.422664 -119.835593 340 17ft 0kts
03-Sep-18 14:32 34.422664 -119.835593 340 17ft 0kts
03-Sep-18 14:33 34.422664 -119.835593 340 17ft 0kts
03-Sep-18 14:34 34.422664 -119.835593 340 17ft 0kts
03-Sep-18 14:35 34.422664 -119.835593 340 17ft 0kts
03-Sep-18 14:36 34.422664 -119.835593 340 17ft 0kts
03-Sep-18 14:37 34.422664 -119.835593 340 17ft 0kts
03-Sep-18 14:38 34.422664 -119.835593 340 17ft 0kts
03-Sep-18 14:39 34.422664 -119.835593 340 17ft 0kts
03-Sep-18 14:40 34.422664 -119.835593 340 17ft 0kts
03-Sep-18 14:41 34.422664 -119.835593 340 17ft 0kts
03-Sep-18 14:42 34.422664 -119.835593 340 17ft 0kts
03-Sep-18 14:43 34.422664 -119.835593 340 17ft 0kts
03-Sep-18 14:44 34.422664 -119.835593 340 17ft 0kts
03-Sep-18 14:45 34.422664 -119.835593 340 17ft 0kts
03-Sep-18 14:46 34.422664 -119.835593 340 17ft 0kts
03-Sep-18 14:47 34.422664 -119.835593 340 17ft 0kts
03-Sep-18 14:48 34.422664 -119.835593 340 17ft 0kts
03-Sep-18 14:49 34.422664 -119.835593 340 17ft 0kts
03-Sep-18 14:50 34.422664 -119.835593 340 17ft 0kts
03-Sep-18 14:51 34.422664 -119.835593 340 17ft 0kts
03-Sep-18 14:52 34.422664 -119.835593 340 17ft 0kts
03-Sep-18 14:53 34.422664 -119.835593 340 17ft 0kts
03-Sep-18 14:54 34.422664 -119.835593 340 17ft 0kts
03-Sep-18 14:55 34.422664 -119.835593 340 17ft 0kts
03-Sep-18 14:56 34.422664 -119.835593 340 17ft 0kts
03-Sep-18 14:57 34.422664 -119.835593 340 17ft 0kts
03-Sep-18 14:58 34.422664 -119.835593 340 17ft 0kts
03-Sep-18 14:59 34.422664 -119.835593 340 17ft 0kts
03-Sep-18 15:00 34.422664 -119.835593 340 17ft 0kts
03-Sep-18 15:01 34.422664 -119.835593 340 17ft 0kts
03-Sep-18 15:02 34.422664 -119.835593 340 17ft 0kts
03-Sep-18 15:03 34.422706 -119.836332 274 17ft 0kts
03-Sep-18 15:04 34.422706 -119.836332 273 17ft 0kts
03-Sep-18 15:05 34.422706 -119.836332 273 17ft 0kts
03-Sep-18 15:06 34.422706 -119.836332 273 17ft 0kts
03-Sep-18 15:07 34.422706 -119.836332 273 17ft 0kts
03-Sep-18 15:08 34.422706 -119.836332 273 17ft 0kts
03-Sep-18 15:09 34.422706 -119.836332 273 17ft 0kts
03-Sep-18 15:10 34.422706 -119.836332 273 17ft 0kts
03-Sep-18 15:11 34.422706 -119.836332 273 17ft 0kts
03-Sep-18 15:12 34.422706 -119.836332 273 17ft 0kts
03-Sep-18 15:13 34.422706 -119.836332 273 17ft 0kts
03-Sep-18 15:15 34.422706 -119.836332 273 17ft 0kts
03-Sep-18 15:16 34.422706 -119.836332 273 17ft 0kts
03-Sep-18 15:17 34.422706 -119.836332 273 17ft 0kts
03-Sep-18 15:18 34.422706 -119.836332 273 17ft 0kts
03-Sep-18 15:19 34.422706 -119.836332 273 17ft 0kts
03-Sep-18 15:20 34.422706 -119.836332 273 17ft 0kts
03-Sep-18 15:21 34.422706 -119.836333 273 17ft 0kts
03-Sep-18 15:22 34.425903 -119.838121 345 17ft 18kts
03-Sep-18 15:23 34.427090 -119.834587 355 17ft 0kts
03-Sep-18 15:24 34.427090 -119.834587 355 17ft 0kts
03-Sep-18 15:25 34.427100 -119.834588 354 17ft 2kts
03-Sep-18 15:26 34.427582 -119.851837 269 493ft 84kts
03-Sep-18 15:27 34.424431 -119.878240 189 1593ft 83kts
03-Sep-18 15:28 34.415830 -119.851910 93 2468ft 95kts
03-Sep-18 15:29 34.415106 -119.820196 94 3403ft 91kts
03-Sep-18 15:30 34.411073 -119.790960 99 4325ft 91kts
03-Sep-18 15:31 34.406617 -119.761120 99 5222ft 88kts
03-Sep-18 15:32 34.402195 -119.731729 99 6046ft 90kts
03-Sep-18 15:33 34.392149 -119.704931 135 6788ft 93kts
03-Sep-18 15:34 34.381237 -119.677030 100 7353ft 108kts
03-Sep-18 15:35 34.374941 -119.637030 100 7359ft 126kts
03-Sep-18 15:36 34.368612 -119.595260 99 7437ft 120kts
03-Sep-18 15:37 34.362808 -119.555406 99 7488ft 121kts
03-Sep-18 15:38 34.356960 -119.515686 99 7488ft 119kts
03-Sep-18 15:39 34.351134 -119.476428 99 7488ft 118kts
03-Sep-18 15:40 34.345245 -119.437067 99 7488ft 118kts
03-Sep-18 15:41 34.339317 -119.397758 99 7488ft 118kts
03-Sep-18 15:42 34.333482 -119.359353 99 7561ft 117kts
03-Sep-18 15:43 34.327809 -119.322317 100 7561ft 118kts
03-Sep-18 15:44 34.321769 -119.283191 100 7561ft 118kts
03-Sep-18 15:45 34.315996 -119.243797 99 7561ft 118kts
03-Sep-18 15:46 34.310417 -119.204468 99 7561ft 118kts
03-Sep-18 15:47 34.304807 -119.165252 99 7561ft 118kts
03-Sep-18 15:48 34.299138 -119.125951 99 7561ft 118kts
03-Sep-18 15:49 34.293412 -119.086593 99 7561ft 118kts
03-Sep-18 15:50 34.287657 -119.047352 99 7561ft 118kts
03-Sep-18 15:51 34.281832 -119.007964 99 7561ft 118kts
03-Sep-18 15:52 34.275983 -118.968731 99 7561ft 118kts
03-Sep-18 15:53 34.270092 -118.929537 100 7561ft 118kts
03-Sep-18 15:54 34.264152 -118.890336 100 7561ft 118kts
03-Sep-18 15:55 34.258153 -118.851051 100 7561ft 118kts
03-Sep-18 15:56 34.252113 -118.811815 100 7561ft 118kts
03-Sep-18 15:57 34.246031 -118.772611 100 7561ft 118kts
03-Sep-18 15:58 34.239894 -118.733365 100 7561ft 118kts
03-Sep-18 15:59 34.233733 -118.694265 100 7561ft 118kts
03-Sep-18 16:00 34.227503 -118.655031 100 7561ft 118kts
03-Sep-18 16:01 34.221898 -118.620080 100 7561ft 96kts
03-Sep-18 16:01 34.217627 -118.593520 100 7562ft 99kts
03-Sep-18 16:03 34.210627 -118.550341 100 7384ft 123kts
03-Sep-18 16:04 34.205192 -118.508123 99 5973ft 128kts
03-Sep-18 16:04 34.202408 -118.473134 91 4684ft 124kts
03-Sep-18 16:05 34.199737 -118.431822 98 2713ft 121kts
03-Sep-18 16:06 34.198355 -118.395921 94 1610ft 83kts
03-Sep-18 16:08 34.197923 -118.368492 91 816ft 64kts
03-Sep-18 16:08 34.197965 -118.360420 39 781ft 13kts
03-Sep-18 16:09 34.198562 -118.360387 353 781ft 0kts
03-Sep-18 16:10 34.198562 -118.360387 353 781ft 0kts
03-Sep-18 16:11 34.198562 -118.360387 353 781ft 0kts
03-Sep-18 16:12 34.422664 -119.835593 340 17ft 0kts
03-Sep-18 16:13 34.422664 -119.835593 340 17ft 0kts
03-Sep-18 16:14 34.422664 -119.835593 340 17ft 0kts
03-Sep-18 16:15 34.422664 -119.835593 340 17ft 0kts
03-Sep-18 16:16 34.422664 -119.835593 340 17ft 0kts
03-Sep-18 16:17 34.422664 -119.835593 340 17ft 0kts
03-Sep-18 16:18 34.422664 -119.835593 340 17ft 0kts
03-Sep-18 16:19 34.422664 -119.835593 340 17ft 0kts
03-Sep-18 16:20 34.422664 -119.835593 340 17ft 0kts
03-Sep-18 16:21 34.422664 -119.835593 340 17ft 0kts
03-Sep-18 16:22 34.422664 -119.835593 340 17ft 0kts

Navigation Log

Ident Type
1. KSBA Airport
2. KBUR Airport